createdAt,value
2018-10-11T00:00:57.281Z,29.40
2018-10-11T00:03:25.379Z,27.70
2018-10-11T00:05:53.495Z,27.07
2018-10-11T00:08:21.597Z,28.80
2018-10-11T00:10:49.696Z,29.93
2018-10-11T00:13:17.789Z,29.70
2018-10-11T00:15:45.881Z,30.40
2018-10-11T00:18:13.965Z,30.87
2018-10-11T00:20:42.118Z,30.77
2018-10-11T00:23:10.249Z,31.57
2018-10-11T00:25:38.358Z,29.30
2018-10-11T00:28:06.789Z,30.23
2018-10-11T00:30:34.888Z,29.90
2018-10-11T00:33:03.083Z,30.57
2018-10-11T00:35:31.195Z,30.83
2018-10-11T00:37:59.289Z,29.30
2018-10-11T00:40:27.389Z,29.70
2018-10-11T00:42:55.478Z,28.40
2018-10-11T00:45:23.633Z,27.47
2018-10-11T00:47:51.728Z,28.93
2018-10-11T00:50:19.828Z,27.73
2018-10-11T00:52:47.923Z,27.73
2018-10-11T00:55:16.033Z,27.63
2018-10-11T00:57:44.124Z,27.00
2018-10-11T01:00:12.297Z,27.57
2018-10-11T01:02:40.418Z,27.40
2018-10-11T01:05:08.529Z,27.20
2018-10-11T01:07:36.625Z,26.33
2018-10-11T01:10:04.800Z,25.30
2018-10-11T01:12:32.875Z,25.07
2018-10-11T01:15:00.979Z,26.10
2018-10-11T01:17:29.069Z,25.57
2018-10-11T01:19:57.164Z,27.33
2018-10-11T01:22:25.257Z,29.03
2018-10-11T01:24:53.337Z,27.87
2018-10-11T01:27:21.433Z,27.30
2018-10-11T01:29:49.616Z,27.30
2018-10-11T01:32:17.637Z,24.67
2018-10-11T01:34:45.803Z,26.93
2018-10-11T01:37:13.930Z,26.00
2018-10-11T01:39:42.049Z,26.93
2018-10-11T01:42:10.157Z,25.03
2018-10-11T01:44:38.489Z,26.20
2018-10-11T01:47:06.681Z,26.27
2018-10-11T01:49:34.793Z,28.50
2018-10-11T01:52:02.894Z,26.37
2018-10-11T01:54:30.985Z,29.33
2018-10-11T01:56:59.081Z,30.30
2018-10-11T01:59:27.160Z,30.53
2018-10-11T02:01:55.222Z,27.40
2018-10-11T02:04:23.301Z,27.07
2018-10-11T02:06:51.359Z,28.43
2018-10-11T02:09:19.494Z,31.73
2018-10-11T02:11:47.519Z,29.23
2018-10-11T02:14:15.617Z,29.93
2018-10-11T02:16:43.744Z,30.17
2018-10-11T02:19:12.145Z,29.47
2018-10-11T02:21:40.472Z,33.13
2018-10-11T02:24:08.608Z,32.07
2018-10-11T02:26:36.688Z,31.47
2018-10-11T02:29:04.744Z,28.67
2018-10-11T02:31:32.837Z,26.27
2018-10-11T02:34:00.926Z,28.07
2018-10-11T02:36:29.012Z,32.10
2018-10-11T02:38:57.189Z,32.40
2018-10-11T02:41:25.381Z,28.60
2018-10-11T02:43:53.740Z,33.00
2018-10-11T02:46:21.832Z,28.97
2018-10-11T02:48:49.917Z,28.70
2018-10-11T02:51:18.032Z,28.10
2018-10-11T02:53:46.116Z,28.27
2018-10-11T02:56:14.204Z,28.37
2018-10-11T02:58:53.777Z,30.47
2018-10-11T03:01:21.881Z,30.40
2018-10-11T03:03:52.828Z,31.20
2018-10-11T03:06:20.969Z,31.50
2018-10-11T03:08:49.038Z,30.30
2018-10-11T03:11:17.129Z,28.67
2018-10-11T03:13:45.219Z,28.77
2018-10-11T03:16:13.344Z,28.73
2018-10-11T03:18:41.461Z,33.07
2018-10-11T03:21:09.568Z,29.70
2018-10-11T03:23:37.664Z,31.73
2018-10-11T03:26:05.761Z,36.10
2018-10-11T03:28:33.833Z,30.10
2018-10-11T03:31:01.928Z,29.77
2018-10-11T03:33:30.063Z,30.03
2018-10-11T03:35:58.160Z,31.53
2018-10-11T03:38:26.269Z,29.77
2018-10-11T03:40:54.449Z,31.93
2018-10-11T03:43:22.689Z,31.40
2018-10-11T03:45:50.776Z,29.37
2018-10-11T03:48:18.863Z,29.00
2018-10-11T03:50:46.953Z,28.23
2018-10-11T03:53:15.062Z,33.43
2018-10-11T03:55:43.159Z,29.97
2018-10-11T03:58:11.252Z,28.37
2018-10-11T04:00:39.356Z,30.50
2018-10-11T04:03:07.507Z,31.03
2018-10-11T04:05:35.615Z,28.90
2018-10-11T04:08:03.692Z,32.63
2018-10-11T04:10:31.844Z,30.37
2018-10-11T04:12:59.944Z,27.80
2018-10-11T04:15:28.179Z,32.97
2018-10-11T04:17:56.345Z,32.83
2018-10-11T04:20:24.473Z,30.03
2018-10-11T04:22:52.585Z,32.17
2018-10-11T04:25:20.692Z,29.50
2018-10-11T04:27:48.787Z,30.57
2018-10-11T04:30:16.870Z,30.13
2018-10-11T04:32:44.960Z,30.60
2018-10-11T04:35:13.160Z,31.77
2018-10-11T04:37:41.524Z,30.33
2018-10-11T04:40:09.649Z,30.07
2018-10-11T04:42:37.747Z,32.03
2018-10-11T04:45:05.820Z,29.20
2018-10-11T04:47:33.912Z,31.37
2018-10-11T04:50:02.005Z,33.43
2018-10-11T04:52:30.238Z,36.33
2018-10-11T04:54:58.328Z,34.73
2018-10-11T04:57:26.438Z,32.53
2018-10-11T04:59:54.532Z,35.70
2018-10-11T05:02:22.625Z,34.27
2018-10-11T05:04:50.717Z,33.00
2018-10-11T05:07:18.920Z,29.53
2018-10-11T05:09:47.048Z,31.47
2018-10-11T05:12:15.240Z,33.73
2018-10-11T05:14:43.672Z,31.50
2018-10-11T05:17:11.815Z,32.60
2018-10-11T05:19:40.585Z,32.63
2018-10-11T05:22:08.672Z,30.83
2018-10-11T05:24:36.760Z,32.07
2018-10-11T05:27:05.570Z,30.60
2018-10-11T05:29:33.710Z,33.13
2018-10-11T05:32:01.946Z,33.23
2018-10-11T05:34:30.072Z,30.60
2018-10-11T05:36:58.200Z,30.73
2018-10-11T05:39:26.389Z,32.63
2018-10-11T05:41:54.499Z,29.53
2018-10-11T05:44:22.662Z,31.53
2018-10-11T05:46:50.764Z,30.00
2018-10-11T05:49:18.916Z,31.10
2018-10-11T05:51:47.055Z,29.60
2018-10-11T05:54:15.138Z,29.37
2018-10-11T05:56:45.278Z,31.17
2018-10-11T05:59:13.330Z,34.63
2018-10-11T06:01:41.405Z,32.27
2018-10-11T06:04:11.115Z,31.80
2018-10-11T06:06:39.245Z,32.97
2018-10-11T06:09:08.388Z,33.27
2018-10-11T06:11:36.592Z,32.27
2018-10-11T06:14:04.772Z,30.47
2018-10-11T06:16:33.108Z,30.40
2018-10-11T06:19:01.192Z,28.87
2018-10-11T06:21:29.477Z,28.73
2018-10-11T06:23:58.780Z,28.40
2018-10-11T06:26:26.881Z,30.57
2018-10-11T06:28:54.994Z,30.40
2018-10-11T06:31:23.173Z,30.87
2018-10-11T06:36:31.326Z,28.87
2018-10-11T06:38:59.781Z,28.57
2018-10-11T06:41:28.087Z,26.10
2018-10-11T06:43:56.667Z,27.27
2018-10-11T06:46:24.885Z,25.73
2018-10-11T06:48:53.060Z,28.03
2018-10-11T06:51:21.302Z,26.40
2018-10-11T06:53:52.721Z,26.90
2018-10-11T06:56:21.345Z,27.40
2018-10-11T06:58:49.493Z,26.30
2018-10-11T07:01:17.687Z,26.05
2018-10-11T07:03:45.829Z,27.27
2018-10-11T07:06:14.012Z,25.20
2018-10-11T07:08:42.302Z,24.52
2018-10-11T07:11:10.417Z,24.72
2018-10-11T07:13:38.970Z,25.17
2018-10-11T07:16:07.169Z,24.43
2018-10-11T07:18:35.305Z,24.10
2018-10-11T07:21:03.464Z,23.52
2018-10-11T07:23:31.767Z,23.80
2018-10-11T07:25:59.967Z,23.15
2018-10-11T07:28:28.136Z,23.77
2018-10-11T07:30:56.281Z,22.35
2018-10-11T07:33:24.822Z,21.40
2018-10-11T07:35:53.044Z,22.25
2018-10-11T07:38:21.273Z,21.55
2018-10-11T07:40:49.453Z,22.82
2018-10-11T07:43:17.591Z,22.65
2018-10-11T07:45:45.713Z,25.27
2018-10-11T07:48:13.843Z,23.05
2018-10-11T07:50:42.072Z,25.55
2018-10-11T07:53:10.258Z,24.92
2018-10-11T07:55:38.452Z,24.63
2018-10-11T07:58:06.612Z,26.73
2018-10-11T08:00:34.736Z,27.00
2018-10-11T08:03:02.840Z,28.32
2018-10-11T08:05:37.605Z,25.72
2018-10-11T08:08:05.745Z,24.65
2018-10-11T08:10:33.977Z,25.90
2018-10-11T08:13:02.080Z,25.85
2018-10-11T08:15:30.196Z,26.20
2018-10-11T08:17:58.676Z,25.43
2018-10-11T08:20:26.791Z,27.95
2018-10-11T08:22:54.891Z,27.95
2018-10-11T08:25:23.380Z,26.52
2018-10-11T08:27:51.291Z,26.25
2018-10-11T08:30:19.474Z,27.37
2018-10-11T08:32:47.590Z,28.32
2018-10-11T08:35:15.772Z,25.88
2018-10-11T08:37:43.962Z,27.25
2018-10-11T08:40:12.034Z,28.05
2018-10-11T08:42:40.140Z,28.57
2018-10-11T08:45:08.310Z,26.75
2018-10-11T08:47:36.445Z,25.37
2018-10-11T08:50:04.672Z,24.32
2018-10-11T08:52:32.796Z,22.67
2018-10-11T08:55:01.013Z,22.75
2018-10-11T08:57:29.162Z,23.45
2018-10-11T08:59:57.346Z,23.35
2018-10-11T09:02:25.505Z,24.45
2018-10-11T09:04:53.641Z,24.57
2018-10-11T09:07:21.882Z,25.05
2018-10-11T09:09:53.634Z,23.62
2018-10-11T09:12:18.624Z,23.67
2018-10-11T09:14:46.837Z,22.27
2018-10-11T09:17:15.052Z,22.65
2018-10-11T09:19:43.249Z,22.70
2018-10-11T09:22:11.464Z,20.23
2018-10-11T09:24:39.589Z,20.32
2018-10-11T09:27:07.718Z,19.27
2018-10-11T09:29:35.869Z,18.15
2018-10-11T09:32:03.960Z,17.77
2018-10-11T09:34:32.253Z,18.65
2018-10-11T09:37:00.417Z,17.40
2018-10-11T09:39:28.624Z,17.15
2018-10-11T09:41:56.758Z,17.87
2018-10-11T09:44:24.943Z,18.50
2018-10-11T09:46:53.152Z,17.15
2018-10-11T09:49:21.284Z,21.45
2018-10-11T09:51:49.461Z,22.95
2018-10-11T09:54:17.580Z,17.77
2018-10-11T09:57:48.737Z,17.55
2018-10-11T10:00:22.145Z,17.12
2018-10-11T10:02:50.676Z,17.57
2018-10-11T10:05:18.782Z,16.40
2018-10-11T10:07:46.937Z,16.32
2018-10-11T10:10:15.095Z,17.37
2018-10-11T10:12:43.310Z,16.60
2018-10-11T10:15:11.488Z,16.97
2018-10-11T10:17:39.704Z,15.98
2018-10-11T10:20:07.840Z,15.20
2018-10-11T10:22:36.015Z,16.45
2018-10-11T10:25:04.162Z,17.15
2018-10-11T10:27:32.422Z,16.87
2018-10-11T10:30:00.610Z,15.72
2018-10-11T10:32:28.808Z,16.40
2018-10-11T10:34:57.223Z,17.25
2018-10-11T10:37:25.446Z,15.40
2018-10-11T10:39:53.779Z,16.02
2018-10-11T10:42:21.936Z,15.60
2018-10-11T10:44:50.148Z,16.23
2018-10-11T10:47:18.418Z,16.12
2018-10-11T10:49:46.597Z,16.32
2018-10-11T10:52:14.757Z,15.05
2018-10-11T10:54:42.912Z,15.38
2018-10-11T10:57:11.097Z,15.68
2018-10-11T10:59:39.315Z,14.45
2018-10-11T11:02:07.525Z,14.80
2018-10-11T11:04:35.728Z,14.05
2018-10-11T11:07:03.946Z,14.70
2018-10-11T11:09:32.103Z,13.68
2018-10-11T11:12:00.448Z,15.43
2018-10-11T11:14:29.145Z,15.10
2018-10-11T11:16:57.388Z,14.50
2018-10-11T11:19:25.780Z,14.03
2018-10-11T11:21:53.969Z,14.63
2018-10-11T11:24:22.088Z,16.10
2018-10-11T11:26:50.363Z,14.68
2018-10-11T11:29:18.879Z,16.12
2018-10-11T11:31:47.097Z,15.78
2018-10-11T11:34:15.349Z,16.07
2018-10-11T11:36:43.572Z,16.17
2018-10-11T11:39:11.801Z,16.80
2018-10-11T11:41:39.932Z,15.65
2018-10-11T11:44:08.072Z,14.50
2018-10-11T11:46:36.187Z,15.15
2018-10-11T11:49:04.343Z,17.02
2018-10-11T11:51:32.528Z,17.00
2018-10-11T11:54:00.689Z,15.90
2018-10-11T11:56:28.846Z,16.50
2018-10-11T11:58:56.981Z,15.80
2018-10-11T12:01:25.136Z,15.70
2018-10-11T12:03:53.265Z,16.55
2018-10-11T12:06:21.424Z,15.30
2018-10-11T12:08:49.553Z,16.15
2018-10-11T12:11:17.691Z,16.77
2018-10-11T12:13:45.848Z,16.10
2018-10-11T12:16:13.989Z,15.32
2018-10-11T12:18:42.169Z,17.02
2018-10-11T12:21:10.372Z,14.65
2018-10-11T12:23:38.514Z,14.63
2018-10-11T12:26:06.803Z,15.70
2018-10-11T12:28:35.090Z,14.18
2018-10-11T12:31:03.197Z,14.87
2018-10-11T12:33:32.377Z,14.47
2018-10-11T12:36:06.939Z,15.13
2018-10-11T12:38:35.129Z,13.70
2018-10-11T12:41:03.265Z,14.93
2018-10-11T12:43:31.398Z,14.70
2018-10-11T12:45:59.561Z,14.58
2018-10-11T12:48:27.716Z,14.45
2018-10-11T12:50:55.791Z,14.55
2018-10-11T12:53:23.881Z,14.50
2018-10-11T12:55:52.000Z,14.75
2018-10-11T12:58:20.082Z,15.10
2018-10-11T13:00:48.257Z,16.05
2018-10-11T13:03:16.444Z,16.48
2018-10-11T13:05:44.480Z,15.10
2018-10-11T13:08:12.547Z,15.35
2018-10-11T13:10:40.626Z,14.50
2018-10-11T13:13:08.896Z,14.98
2018-10-11T13:15:37.087Z,15.28
2018-10-11T13:18:05.154Z,13.88
2018-10-11T13:20:33.274Z,13.95
2018-10-11T13:23:01.493Z,14.33
2018-10-11T13:25:29.604Z,13.32
2018-10-11T13:27:57.696Z,12.93
2018-10-11T13:30:25.856Z,13.03
2018-10-11T13:32:54.017Z,11.15
2018-10-11T13:35:22.193Z,11.73
2018-10-11T13:37:50.231Z,12.90
2018-10-11T13:40:18.315Z,10.95
2018-10-11T13:42:46.436Z,10.88
2018-10-11T13:45:14.528Z,10.28
2018-10-11T13:47:45.296Z,10.53
2018-10-11T13:50:10.899Z,11.33
2018-10-11T13:52:38.967Z,13.38
2018-10-11T13:55:11.114Z,13.13
2018-10-11T13:57:35.153Z,14.05
2018-10-11T14:00:03.444Z,13.48
2018-10-11T14:02:31.605Z,14.50
2018-10-11T14:04:59.709Z,14.28
2018-10-11T14:07:27.868Z,14.58
2018-10-11T14:09:55.949Z,13.55
2018-10-11T14:12:24.072Z,13.00
2018-10-11T14:14:52.146Z,13.20
2018-10-11T14:17:20.356Z,12.78
2018-10-11T14:19:48.439Z,13.83
2018-10-11T14:22:16.551Z,12.85
2018-10-11T14:24:44.629Z,13.10
2018-10-11T14:27:12.731Z,12.20
2018-10-11T14:29:40.795Z,12.73
2018-10-11T14:32:08.887Z,13.80
2018-10-11T14:34:37.024Z,12.55
2018-10-11T14:37:05.269Z,13.48
2018-10-11T14:39:33.264Z,11.70
2018-10-11T14:42:01.451Z,11.80
2018-10-11T14:44:29.573Z,12.43
2018-10-11T14:46:57.668Z,12.88
2018-10-11T14:49:26.098Z,13.05
2018-10-11T14:51:54.168Z,14.15
2018-10-11T14:54:22.236Z,11.55
2018-10-11T14:56:50.400Z,11.53
2018-10-11T14:59:20.806Z,12.18
2018-10-11T15:01:48.882Z,10.85
2018-10-11T15:04:16.965Z,10.58
2018-10-11T15:06:45.053Z,11.57
2018-10-11T15:09:13.120Z,11.20
2018-10-11T15:11:41.216Z,10.93
2018-10-11T15:14:09.276Z,11.57
2018-10-11T15:16:37.433Z,12.25
2018-10-11T15:19:05.512Z,11.22
2018-10-11T15:21:33.668Z,11.73
2018-10-11T15:24:01.812Z,10.60
2018-10-11T15:26:29.920Z,10.38
2018-10-11T15:28:57.992Z,12.03
2018-10-11T15:31:26.064Z,10.78
2018-10-11T15:33:54.283Z,11.57
2018-10-11T15:36:22.538Z,10.88
2018-10-11T15:38:50.672Z,12.73
2018-10-11T15:41:18.742Z,12.07
2018-10-11T15:43:46.905Z,12.43
2018-10-11T15:46:15.061Z,11.33
2018-10-11T15:48:43.131Z,11.70
2018-10-11T15:51:11.214Z,11.50
2018-10-11T15:53:39.344Z,11.22
2018-10-11T15:56:07.600Z,11.08
2018-10-11T15:58:35.759Z,11.38
2018-10-11T16:01:04.045Z,11.38
2018-10-11T16:03:32.144Z,11.12
2018-10-11T16:06:00.229Z,9.88
2018-10-11T16:08:28.293Z,10.80
2018-10-11T16:10:56.356Z,11.03
2018-10-11T16:13:24.536Z,11.35
2018-10-11T16:15:52.640Z,10.48
2018-10-11T16:18:20.756Z,11.35
2018-10-11T16:20:48.837Z,12.23
2018-10-11T16:23:16.924Z,11.45
2018-10-11T16:25:45.032Z,12.58
2018-10-11T16:28:13.126Z,12.40
2018-10-11T16:30:41.412Z,12.35
2018-10-11T16:33:09.421Z,11.75
2018-10-11T16:35:37.561Z,12.23
2018-10-11T16:38:05.633Z,12.40
2018-10-11T16:40:33.720Z,12.75
2018-10-11T16:43:01.782Z,12.23
2018-10-11T16:45:29.960Z,11.73
2018-10-11T16:47:58.029Z,12.35
2018-10-11T16:50:26.136Z,11.15
2018-10-11T16:52:54.228Z,11.63
2018-10-11T16:55:22.329Z,11.63
2018-10-11T16:57:50.421Z,12.68
2018-10-11T17:00:18.506Z,12.13
2018-10-11T17:02:46.593Z,12.07
2018-10-11T17:05:14.717Z,12.30
2018-10-11T17:07:42.942Z,12.18
2018-10-11T17:10:11.069Z,13.10
2018-10-11T17:12:39.164Z,12.37
2018-10-11T17:15:07.344Z,12.58
2018-10-11T17:17:35.517Z,11.60
2018-10-11T17:20:03.646Z,12.40
2018-10-11T17:22:31.716Z,11.57
2018-10-11T17:24:59.792Z,10.72
2018-10-11T17:27:28.256Z,12.18
2018-10-11T17:29:56.374Z,11.65
2018-10-11T17:32:24.692Z,12.45
2018-10-11T17:34:52.769Z,12.00
2018-10-11T17:37:20.901Z,12.23
2018-10-11T17:39:48.999Z,11.57
2018-10-11T17:42:17.176Z,11.60
2018-10-11T17:44:45.279Z,11.60
2018-10-11T17:47:13.349Z,11.93
2018-10-11T17:49:41.421Z,11.30
2018-10-11T17:52:09.500Z,11.78
2018-10-11T17:54:37.655Z,11.05
2018-10-11T17:57:05.780Z,11.95
2018-10-11T17:59:33.898Z,11.43
2018-10-11T18:02:01.984Z,11.57
2018-10-11T18:04:30.057Z,12.00
2018-10-11T18:06:58.149Z,11.65
2018-10-11T18:09:26.221Z,13.03
2018-10-11T18:11:54.294Z,12.63
2018-10-11T18:14:22.425Z,12.73
2018-10-11T18:16:50.525Z,12.25
2018-10-11T18:19:18.693Z,12.78
2018-10-11T18:21:46.843Z,11.00
2018-10-11T18:24:14.954Z,11.93
2018-10-11T18:26:43.008Z,11.28
2018-10-11T18:29:11.143Z,10.80
2018-10-11T18:31:39.160Z,10.65
2018-10-11T18:34:08.001Z,10.98
2018-10-11T18:36:36.080Z,11.25
2018-10-11T18:39:06.848Z,10.65
2018-10-11T18:41:34.924Z,10.82
2018-10-11T18:44:03.086Z,10.38
2018-10-11T18:46:31.136Z,9.97
2018-10-11T18:48:59.201Z,12.10
2018-10-11T18:51:27.273Z,11.15
2018-10-11T18:53:55.626Z,9.88
2018-10-11T18:56:23.769Z,10.82
2018-10-11T18:58:51.823Z,11.33
2018-10-11T19:01:19.949Z,11.13
2018-10-11T19:03:48.029Z,11.80
2018-10-11T19:06:16.167Z,10.90
2018-10-11T19:08:44.248Z,11.12
2018-10-11T19:11:12.546Z,10.58
2018-10-11T19:13:40.765Z,11.20
2018-10-11T19:16:09.072Z,11.73
2018-10-11T19:18:37.487Z,10.80
2018-10-11T19:21:05.581Z,11.50
2018-10-11T19:23:33.640Z,12.00
2018-10-11T19:26:01.705Z,12.33
2018-10-11T19:28:29.751Z,10.98
2018-10-11T19:30:57.913Z,11.30
2018-10-11T19:33:25.991Z,11.50
2018-10-11T19:35:54.134Z,11.25
2018-10-11T19:38:22.225Z,11.00
2018-10-11T19:40:50.570Z,10.15
2018-10-11T19:43:19.052Z,11.75
2018-10-11T19:45:47.209Z,11.35
2018-10-11T19:48:15.622Z,10.75
2018-10-11T19:50:43.716Z,11.30
2018-10-11T19:53:11.981Z,10.58
2018-10-11T19:55:40.133Z,11.20
2018-10-11T19:58:08.268Z,10.88
2018-10-11T20:00:36.332Z,10.75
2018-10-11T20:03:04.785Z,11.33
2018-10-11T20:05:32.840Z,11.85
2018-10-11T20:08:01.034Z,11.35
2018-10-11T20:10:29.064Z,11.85
2018-10-11T20:12:57.149Z,10.90
2018-10-11T20:15:25.290Z,11.33
2018-10-11T20:17:53.352Z,11.18
2018-10-11T20:20:21.399Z,12.65
2018-10-11T20:22:49.533Z,11.55
2018-10-11T20:25:17.593Z,12.00
2018-10-11T20:27:45.660Z,12.15
2018-10-11T20:30:13.856Z,11.45
2018-10-11T20:32:41.926Z,11.55
2018-10-11T20:35:10.034Z,11.03
2018-10-11T20:37:38.091Z,11.48
2018-10-11T20:40:06.246Z,12.50
2018-10-11T20:42:34.336Z,11.45
2018-10-11T20:45:02.433Z,11.95
2018-10-11T20:47:30.496Z,12.40
2018-10-11T20:49:58.669Z,11.73
2018-10-11T20:52:26.824Z,12.53
2018-10-11T20:54:54.910Z,10.90
2018-10-11T20:57:23.045Z,11.97
2018-10-11T20:59:51.141Z,12.20
2018-10-11T21:02:19.217Z,12.45
2018-10-11T21:04:47.260Z,12.35
2018-10-11T21:07:15.372Z,13.38
2018-10-11T21:09:43.441Z,12.50
2018-10-11T21:12:11.532Z,12.47
2018-10-11T21:14:39.636Z,11.28
2018-10-11T21:17:07.788Z,12.43
2018-10-11T21:19:35.849Z,11.75
2018-10-11T21:22:03.964Z,12.10
2018-10-11T21:24:32.046Z,11.80
2018-10-11T21:27:00.153Z,11.65
2018-10-11T21:29:28.363Z,11.48
2018-10-11T21:31:56.445Z,12.50
2018-10-11T21:34:24.548Z,12.18
2018-10-11T21:36:52.571Z,11.85
2018-10-11T21:39:20.648Z,12.55
2018-10-11T21:41:48.711Z,11.55
2018-10-11T21:44:16.817Z,12.23
2018-10-11T21:46:44.881Z,12.18
2018-10-11T21:49:12.953Z,12.23
2018-10-11T21:51:41.025Z,12.10
2018-10-11T21:54:09.143Z,11.38
2018-10-11T21:56:37.220Z,12.40
2018-10-11T21:59:05.384Z,11.95
2018-10-11T22:01:33.452Z,12.03
2018-10-11T22:04:01.527Z,12.15
2018-10-11T22:06:29.742Z,12.45
2018-10-11T22:08:57.902Z,11.25
2018-10-11T22:11:26.027Z,10.55
2018-10-11T22:13:54.096Z,12.73
2018-10-11T22:16:22.169Z,12.07
2018-10-11T22:18:50.244Z,12.73
2018-10-11T22:21:18.317Z,12.53
2018-10-11T22:23:46.432Z,11.90
2018-10-11T22:26:14.492Z,12.60
2018-10-11T22:28:42.557Z,12.82
2018-10-11T22:31:12.461Z,12.40
2018-10-11T22:33:41.231Z,12.30
2018-10-11T22:36:09.727Z,12.23
2018-10-11T22:38:37.837Z,12.18
2018-10-11T22:41:06.186Z,11.43
2018-10-11T22:43:34.260Z,11.22
2018-10-11T22:46:02.328Z,11.27
2018-10-11T22:48:30.400Z,11.73
2018-10-11T22:50:58.460Z,11.93
2018-10-11T22:53:26.548Z,11.87
2018-10-11T22:55:54.627Z,10.70
2018-10-11T22:58:22.714Z,11.00
2018-10-11T23:00:50.844Z,11.33
2018-10-11T23:03:18.949Z,11.33
2018-10-11T23:05:47.009Z,11.35
2018-10-11T23:08:15.080Z,10.53
2018-10-11T23:10:43.125Z,11.08
2018-10-11T23:13:11.196Z,11.08
2018-10-11T23:15:39.294Z,10.90
2018-10-11T23:18:07.360Z,11.38
2018-10-11T23:20:35.422Z,11.65
2018-10-11T23:23:03.517Z,11.65
2018-10-11T23:25:31.681Z,11.48
2018-10-11T23:27:59.736Z,11.83
2018-10-11T23:30:27.799Z,11.43
2018-10-11T23:32:55.874Z,11.88
2018-10-11T23:35:23.944Z,11.87
2018-10-11T23:37:52.005Z,12.13
2018-10-11T23:40:20.078Z,11.93
2018-10-11T23:42:48.160Z,11.03
2018-10-11T23:45:16.221Z,12.07
2018-10-11T23:47:44.275Z,11.73
2018-10-11T23:50:12.340Z,11.17
2018-10-11T23:52:40.659Z,11.60
2018-10-11T23:55:09.053Z,11.80
2018-10-11T23:57:37.109Z,11.60
